KTPA/TPA METAR and TAF weather

Enter ICAO airport designator
Station Type Date Time Source
KTPA METAR 2018/12/18 18:53 UTC NOAA

KTPA 181853Z 23007KT 10SM FEW250 19/09 A3008 RMK AO2 SLP185 T01940094


Station Type Date Time Source
KTPA Decoded METAR 2018/12/18 18:53 UTC NOAA

TAMPA INTERNATIONAL AIRPORT , FL, United States (KTPA) 27-58N 082-32W 11M
Dec 18, 2018 - 01:53 PM EST / 2018.12.18 1853 UTC
Wind: from the SW (230 degrees) at 8 MPH (7 KT):0
Visibility: 10 mile(s):0
Sky conditions: mostly clear
Temperature: 66.9 F (19.4 C)
Dew Point: 48.9 F (9.4 C)
Relative Humidity: 52%
Pressure (altimeter): 30.08 in. Hg (1018 hPa)
ob: KTPA 181853Z 23007KT 10SM FEW250 19/09 A3008 RMK AO2 SLP185 T01940094
cycle: 19

Station Type Date Time Source
KTPA TAF 2018/12/18 18:39 UTC NOAA

TAF KTPA 181737Z 1818/1924 25006KT P6SM SCT250
FM182100 29006KT P6SM BKN250
FM190100 VRB03KT P6SM BKN250
FM191500 11005KT P6SM FEW025 SCT080 BKN250
FM191800 16007KT P6SM SCT035 BKN080
FM192200 18007KT P6SM VCSH SCT020 BKN035


Example: see airport list